Terminal Aerodrome Forecast
Issued by NWS Cleveland, OH

Home | Current Version | Previous Version | Graphics & Text | Print | Product List | Glossary Off
Versions: 1 2 3 4 5 6 7 8 9 10 11 12 13 14 15 16 17 18 19 20

677
FTUS41 KCLE 131128
TAFYNG
TAF
KYNG 131128Z 1312/1412 30010KT 4SM -SHSN OVC035
      TEMPO 1312/1314 2SM -SHSN OVC025
     FM131400 30010G18KT 3SM -SHSN OVC025
      TEMPO 1314/1318 2SM -SHSN OVC015
     FM132100 30010KT P6SM BKN035
     FM140300 29006KT P6SM SCT035=

USA.gov is the U.S. government's official web portal to all federal, state and local government web resources and services.